createdAt,value
2022-11-20T00:00:00.493Z,33.08
2022-11-20T00:04:03.677Z,31.17
2022-11-20T00:08:09.098Z,28.45
2022-11-20T00:12:12.590Z,30.48
2022-11-20T00:16:16.941Z,33.05
2022-11-20T00:20:25.928Z,28.75
2022-11-20T00:24:31.005Z,40.15
2022-11-20T00:28:34.717Z,27.77
2022-11-20T00:32:37.711Z,22.70
2022-11-20T00:36:41.158Z,28.10
2022-11-20T00:40:45.728Z,26.38
2022-11-20T00:44:48.992Z,29.73
2022-11-20T00:48:52.321Z,27.17
2022-11-20T00:52:55.725Z,32.60
2022-11-20T00:57:00.925Z,35.30
2022-11-20T01:01:05.361Z,21.40
2022-11-20T01:05:09.568Z,28.23
2022-11-20T01:09:15.126Z,30.20
2022-11-20T01:13:45.285Z,28.70
2022-11-20T01:17:48.769Z,27.42
2022-11-20T01:21:54.344Z,25.63
2022-11-20T01:25:57.406Z,34.03
2022-11-20T01:30:02.230Z,24.85
2022-11-20T01:34:09.136Z,25.45
2022-11-20T01:38:12.658Z,29.42
2022-11-20T01:42:33.761Z,30.63
2022-11-20T01:46:40.802Z,29.92
2022-11-20T01:50:44.887Z,27.42
2022-11-20T01:54:53.294Z,29.05
2022-11-20T01:59:01.024Z,29.20
2022-11-20T02:03:09.999Z,28.77
2022-11-20T02:07:14.392Z,34.35
2022-11-20T02:11:17.449Z,29.25
2022-11-20T02:15:24.055Z,22.05
2022-11-20T02:19:33.073Z,28.27
2022-11-20T02:23:41.970Z,26.65
2022-11-20T02:27:46.863Z,26.05
2022-11-20T02:31:50.356Z,28.63
2022-11-20T02:35:53.454Z,29.63
2022-11-20T02:39:56.968Z,28.80
2022-11-20T02:44:02.178Z,26.25
2022-11-20T02:48:05.474Z,32.83
2022-11-20T02:52:09.208Z,29.52
2022-11-20T02:56:13.534Z,28.70
2022-11-20T03:00:18.696Z,29.48
2022-11-20T03:04:22.217Z,42.67
2022-11-20T03:08:25.804Z,33.00
2022-11-20T03:12:28.837Z,32.78
2022-11-20T03:16:34.537Z,28.08
2022-11-20T03:20:37.715Z,31.45
2022-11-20T03:24:41.242Z,26.65
2022-11-20T03:28:48.874Z,28.70
2022-11-20T03:32:56.310Z,28.85
2022-11-20T03:36:59.972Z,30.92
2022-11-20T03:41:04.812Z,32.38
2022-11-20T03:45:08.584Z,31.92
2022-11-20T03:49:13.518Z,32.05
2022-11-20T03:53:17.675Z,32.63
2022-11-20T03:57:20.672Z,29.42
2022-11-20T04:01:26.212Z,46.20
2022-11-20T04:05:31.628Z,31.75
2022-11-20T04:09:34.897Z,31.80
2022-11-20T04:13:39.024Z,37.90
2022-11-20T04:17:42.543Z,33.28
2022-11-20T04:21:47.440Z,38.53
2022-11-20T04:25:50.941Z,37.40
2022-11-20T04:29:54.518Z,28.20
2022-11-20T04:33:58.204Z,35.63
2022-11-20T04:38:03.241Z,38.33
2022-11-20T04:42:24.493Z,34.10
2022-11-20T04:46:29.003Z,39.25
2022-11-20T04:50:32.725Z,32.22
2022-11-20T04:54:37.661Z,28.50
2022-11-20T04:58:41.359Z,39.40
2022-11-20T05:02:44.847Z,31.85
2022-11-20T05:06:48.460Z,28.55
2022-11-20T05:10:53.240Z,37.38
2022-11-20T05:14:56.808Z,29.60
2022-11-20T05:18:59.932Z,30.85
2022-11-20T05:23:03.435Z,35.50
2022-11-20T05:27:08.508Z,35.13
2022-11-20T05:31:14.292Z,30.33
2022-11-20T05:35:17.986Z,33.85
2022-11-20T05:39:21.816Z,34.95
2022-11-20T05:43:26.596Z,36.17
2022-11-20T05:47:33.676Z,28.40
2022-11-20T05:51:36.732Z,31.80
2022-11-20T05:55:40.245Z,37.45
2022-11-20T05:59:45.540Z,30.55
2022-11-20T06:03:49.093Z,31.83
2022-11-20T06:07:52.626Z,35.20
2022-11-20T06:11:56.114Z,34.28
2022-11-20T06:16:00.606Z,37.78
2022-11-20T06:20:04.411Z,38.08
2022-11-20T06:24:08.606Z,34.78
2022-11-20T06:28:12.320Z,28.50
2022-11-20T06:32:16.998Z,26.85
2022-11-20T06:36:24.841Z,30.40
2022-11-20T06:40:28.436Z,30.38
2022-11-20T06:44:32.254Z,33.10
2022-11-20T06:48:37.087Z,33.05
2022-11-20T06:52:43.667Z,33.88
2022-11-20T06:56:49.432Z,28.55
2022-11-20T07:00:52.915Z,37.67
2022-11-20T07:04:57.428Z,37.33
2022-11-20T07:09:00.914Z,28.42
2022-11-20T07:13:03.988Z,30.67
2022-11-20T07:17:07.027Z,43.13
2022-11-20T07:21:13.151Z,31.70
2022-11-20T07:25:16.661Z,30.90
2022-11-20T07:29:20.553Z,32.53
2022-11-20T07:33:24.427Z,32.35
2022-11-20T07:37:29.132Z,33.88
2022-11-20T07:41:32.785Z,36.05
2022-11-20T07:45:37.382Z,40.30
2022-11-20T07:49:40.915Z,54.45
2022-11-20T07:53:45.286Z,44.58
2022-11-20T07:57:48.829Z,35.17
2022-11-20T08:01:52.646Z,31.55
2022-11-20T08:05:56.259Z,23.75
2022-11-20T08:10:01.065Z,29.52
2022-11-20T08:14:15.401Z,29.80
2022-11-20T08:18:35.410Z,29.48
2022-11-20T08:22:38.935Z,32.22
2022-11-20T08:26:44.124Z,39.80
2022-11-20T08:30:47.239Z,25.00
2022-11-20T08:34:50.724Z,36.58
2022-11-20T08:38:56.283Z,35.47
2022-11-20T08:43:02.374Z,34.10
2022-11-20T08:47:05.548Z,30.83
2022-11-20T08:51:09.073Z,34.92
2022-11-20T08:55:13.401Z,34.25
2022-11-20T08:59:43.495Z,31.38
2022-11-20T09:03:43.283Z,37.03
2022-11-20T09:07:46.754Z,28.40
2022-11-20T09:11:51.081Z,29.63
2022-11-20T09:16:00.945Z,35.60
2022-11-20T09:20:05.702Z,33.70
2022-11-20T09:24:09.288Z,30.33
2022-11-20T09:28:12.421Z,39.35
2022-11-20T09:32:17.670Z,27.48
2022-11-20T09:36:20.834Z,28.70
2022-11-20T09:40:25.905Z,26.20
2022-11-20T09:44:43.131Z,28.67
2022-11-20T09:49:10.095Z,29.15
2022-11-20T09:53:23.241Z,28.75
2022-11-20T09:57:33.090Z,45.70
2022-11-20T10:01:42.603Z,43.17
2022-11-20T10:05:50.064Z,32.35
2022-11-20T10:09:56.882Z,36.85
2022-11-20T10:14:10.485Z,38.90
2022-11-20T10:18:31.887Z,31.67
2022-11-20T10:22:50.647Z,30.73
2022-11-20T10:27:06.034Z,29.42
2022-11-20T10:31:23.776Z,26.95
2022-11-20T10:35:35.054Z,23.65
2022-11-20T10:39:45.075Z,23.17
2022-11-20T10:43:49.778Z,23.90
2022-11-20T10:47:53.365Z,30.23
2022-11-20T10:52:08.544Z,16.85
2022-11-20T10:56:21.258Z,17.10
2022-11-20T11:00:25.094Z,21.38
2022-11-20T11:04:39.064Z,24.55
2022-11-20T11:08:42.752Z,20.58
2022-11-20T11:12:49.177Z,20.58
2022-11-20T11:16:54.716Z,18.02
2022-11-20T11:20:59.015Z,19.30
2022-11-20T11:25:02.535Z,27.23
2022-11-20T11:29:07.780Z,32.60
2022-11-20T11:33:14.290Z,25.17
2022-11-20T11:37:23.126Z,30.98
2022-11-20T11:41:33.197Z,31.60
2022-11-20T11:45:39.428Z,32.88
2022-11-20T11:49:43.071Z,24.58
2022-11-20T11:53:47.032Z,24.92
2022-11-20T11:57:55.722Z,30.77
2022-11-20T12:02:06.267Z,28.17
2022-11-20T12:06:16.204Z,24.77
2022-11-20T12:10:25.165Z,24.88
2022-11-20T12:14:35.856Z,26.15
2022-11-20T12:18:42.670Z,22.90
2022-11-20T12:22:54.765Z,22.30
2022-11-20T12:27:16.100Z,23.93
2022-11-20T12:31:40.647Z,35.28
2022-11-20T12:36:07.341Z,28.63
2022-11-20T12:40:30.088Z,26.55
2022-11-20T12:45:09.008Z,32.47
2022-11-20T12:49:28.338Z,27.83
2022-11-20T12:53:41.957Z,29.30
2022-11-20T12:57:54.572Z,31.42
2022-11-20T13:02:06.757Z,29.35
2022-11-20T13:06:16.882Z,41.88
2022-11-20T13:10:31.245Z,35.42
2022-11-20T13:14:40.255Z,29.27
2022-11-20T13:18:47.665Z,31.85
2022-11-20T13:22:53.452Z,33.30
2022-11-20T13:27:21.766Z,37.38
2022-11-20T13:31:33.262Z,28.35
2022-11-20T13:35:38.104Z,35.25
2022-11-20T13:39:41.541Z,29.35
2022-11-20T13:43:47.544Z,34.78
2022-11-20T13:47:51.903Z,39.53
2022-11-20T13:52:04.454Z,36.92
2022-11-20T13:56:16.312Z,35.67
2022-11-20T14:00:23.254Z,27.20
2022-11-20T14:04:32.173Z,56.13
2022-11-20T14:08:41.150Z,36.22
2022-11-20T14:12:44.274Z,31.08
2022-11-20T14:16:51.002Z,30.92
2022-11-20T14:20:54.658Z,35.05
2022-11-20T14:25:08.566Z,30.17
2022-11-20T14:29:15.266Z,31.08
2022-11-20T14:33:21.061Z,37.55
2022-11-20T14:37:29.439Z,36.03
2022-11-20T14:41:33.828Z,31.48
2022-11-20T14:45:37.563Z,31.55
2022-11-20T14:49:43.487Z,32.10
2022-11-20T14:53:47.053Z,29.90
2022-11-20T14:57:58.238Z,26.27
2022-11-20T15:02:03.678Z,26.33
2022-11-20T15:06:09.944Z,32.55
2022-11-20T15:10:16.862Z,29.98
2022-11-20T15:14:20.005Z,34.08
2022-11-20T15:18:26.018Z,33.13
2022-11-20T15:22:30.955Z,31.40
2022-11-20T15:26:35.447Z,32.10
2022-11-20T15:30:38.539Z,31.90
2022-11-20T15:34:42.297Z,31.08
2022-11-20T15:38:46.910Z,37.45
2022-11-20T15:53:38.847Z,33.30
2022-11-20T15:57:43.647Z,37.25
2022-11-20T16:01:46.905Z,33.63
2022-11-20T16:05:50.638Z,26.35
2022-11-20T16:09:53.738Z,16.83
2022-11-20T16:14:16.125Z,10.90
2022-11-20T16:18:21.196Z,9.25
2022-11-20T16:22:25.017Z,7.18
2022-11-20T16:26:28.110Z,4.57
2022-11-20T16:30:36.814Z,3.42
2022-11-20T16:34:40.257Z,1.58
2022-11-20T16:38:44.679Z,2.42
2022-11-20T16:42:47.784Z,0.60
2022-11-20T16:46:52.726Z,1.38
2022-11-20T16:50:56.603Z,3.80
2022-11-20T16:54:59.938Z,0.70
2022-11-20T16:59:04.444Z,0.52
2022-11-20T17:03:09.667Z,0.65
2022-11-20T17:07:13.310Z,1.38
2022-11-20T17:11:18.849Z,0.30
2022-11-20T17:15:21.971Z,0.43
2022-11-20T17:19:27.100Z,1.08
2022-11-20T17:23:30.657Z,3.72
2022-11-20T17:27:33.988Z,1.73
2022-11-20T17:31:40.182Z,0.60
2022-11-20T17:35:47.697Z,0.93
2022-11-20T17:39:50.916Z,1.98
2022-11-20T17:43:56.388Z,0.35
2022-11-20T17:48:00.102Z,2.35
2022-11-20T17:52:05.594Z,1.77
2022-11-20T17:56:27.341Z,1.15
2022-11-20T18:00:32.376Z,1.35
2022-11-20T18:04:35.873Z,0.73
2022-11-20T18:08:41.718Z,0.43
2022-11-20T18:12:45.154Z,1.10
2022-11-20T18:16:50.545Z,0.85
2022-11-20T18:20:56.391Z,1.73
2022-11-20T18:25:02.057Z,4.28
2022-11-20T18:29:07.457Z,0.82
2022-11-20T18:33:11.448Z,1.17
2022-11-20T18:37:17.393Z,1.48
2022-11-20T18:41:41.278Z,4.57
2022-11-20T18:45:45.290Z,1.77
2022-11-20T18:49:52.864Z,2.30
2022-11-20T18:53:56.167Z,2.30
2022-11-20T18:58:00.757Z,1.13
2022-11-20T19:02:04.632Z,1.08
2022-11-20T19:06:08.470Z,2.35
2022-11-20T19:10:11.875Z,0.95
2022-11-20T19:14:17.486Z,3.42
2022-11-20T19:18:22.129Z,0.88
2022-11-20T19:22:25.219Z,2.47
2022-11-20T19:26:29.153Z,2.42
2022-11-20T19:30:35.058Z,0.90
2022-11-20T19:34:38.298Z,1.48
2022-11-20T19:38:47.676Z,1.60
2022-11-20T19:42:51.675Z,4.10
2022-11-20T19:46:57.336Z,0.77
2022-11-20T19:51:04.951Z,0.73
2022-11-20T19:55:08.271Z,2.03
2022-11-20T19:59:11.968Z,2.15
2022-11-20T20:03:21.813Z,1.05
2022-11-20T20:07:24.977Z,0.95
2022-11-20T20:11:30.473Z,3.58
2022-11-20T20:15:34.232Z,2.45
2022-11-20T20:19:39.127Z,1.27
2022-11-20T20:23:43.819Z,1.98
2022-11-20T20:27:47.275Z,1.75
2022-11-20T20:31:50.277Z,0.80
2022-11-20T20:35:55.135Z,1.15
2022-11-20T20:39:59.103Z,5.28
2022-11-20T20:44:20.030Z,2.22
2022-11-20T20:48:26.152Z,0.93
2022-11-20T20:52:34.458Z,1.77
2022-11-20T20:56:38.253Z,1.27
2022-11-20T21:00:41.548Z,1.40
2022-11-20T21:04:45.162Z,1.25
2022-11-20T21:08:51.136Z,0.75
2022-11-20T21:12:57.097Z,1.00
2022-11-20T21:17:03.320Z,1.30
2022-11-20T21:21:25.153Z,1.75
2022-11-20T21:25:30.361Z,1.23
2022-11-20T21:29:33.385Z,5.78
2022-11-20T21:33:40.974Z,1.02
2022-11-20T21:37:44.533Z,1.58
2022-11-20T21:41:49.763Z,3.35
2022-11-20T21:45:53.243Z,4.00
2022-11-20T21:49:56.856Z,1.45
2022-11-20T21:54:03.238Z,0.68
2022-11-20T21:58:08.157Z,0.75
2022-11-20T22:02:13.205Z,1.10
2022-11-20T22:06:16.891Z,0.68
2022-11-20T22:10:20.343Z,3.97
2022-11-20T22:14:25.653Z,0.45
2022-11-20T22:18:29.910Z,1.10
2022-11-20T22:22:33.615Z,0.65
2022-11-20T22:26:40.461Z,0.60
2022-11-20T22:30:45.617Z,1.48
2022-11-20T22:34:49.465Z,0.90
2022-11-20T22:38:52.818Z,0.55
2022-11-20T22:42:56.722Z,1.52
2022-11-20T22:47:01.875Z,3.78
2022-11-20T22:51:06.638Z,1.45
2022-11-20T22:55:15.051Z,2.65
2022-11-20T22:59:19.880Z,1.23
2022-11-20T23:03:24.449Z,0.75
2022-11-20T23:07:28.083Z,0.80
2022-11-20T23:11:33.196Z,5.32
2022-11-20T23:15:37.526Z,2.63
2022-11-20T23:19:41.934Z,1.00
2022-11-20T23:23:49.205Z,0.80
2022-11-20T23:27:52.334Z,2.17
2022-11-20T23:31:55.489Z,1.42
2022-11-20T23:36:00.359Z,0.93
2022-11-20T23:40:04.909Z,0.60
2022-11-20T23:44:08.470Z,3.63
2022-11-20T23:48:12.243Z,0.73
2022-11-20T23:52:17.152Z,0.75
2022-11-20T23:56:20.716Z,1.00
